Time;durP1;ratioP1;P1;durP2;ratioP2;P2;SDS_P1;SDS_P2;PMS_P1;PMS_P2;Temp;Humidity;BMP_temperature;BMP_pressure;BME280_temperature;BME280_humidity;BME280_pressure;Samples;Min_cycle;Max_cycle;Signal;HPM_P1;HPM_P2
2022/09/18 00:01:23;;;;;;;3.08;2.45;;;;;;;17.25;72.56;93673.47;5007766;28;20202;-69
2022/09/18 00:03:49;;;;;;;5.57;2.92;;;;;;;17.31;71.41;93676.00;5005969;28;20218;-69
2022/09/18 00:06:17;;;;;;;3.75;2.95;;;;;;;17.36;71.64;93678.78;5000663;28;20728;-69
2022/09/18 00:08:43;;;;;;;2.90;2.22;;;;;;;17.21;72.00;93667.75;5007624;28;20223;-69
2022/09/18 00:11:10;;;;;;;5.22;2.40;;;;;;;17.17;72.37;93699.28;5007734;28;21144;-68
2022/09/18 00:13:37;;;;;;;2.65;2.17;;;;;;;17.17;72.19;93695.81;5008954;28;20207;-68
2022/09/18 00:16:03;;;;;;;2.95;2.15;;;;;;;17.14;71.53;93697.09;5004584;28;20233;-69
2022/09/18 00:18:29;;;;;;;2.92;2.67;;;;;;;17.09;70.74;93715.53;4991294;28;20218;-69
2022/09/18 00:21:01;;;;;;;3.15;2.47;;;;;;;16.95;71.02;93722.06;5006580;28;20229;-69
2022/09/18 00:23:27;;;;;;;5.30;2.30;;;;;;;16.93;70.82;93735.53;5004509;28;20221;-69
2022/09/18 00:25:53;;;;;;;3.65;2.10;;;;;;;16.72;69.96;93742.06;5006804;28;20298;-69
2022/09/18 00:28:18;;;;;;;2.83;1.92;;;;;;;16.52;69.23;93755.53;5007943;28;20287;-69
2022/09/18 00:30:44;;;;;;;2.92;1.40;;;;;;;16.32;68.59;93770.81;5005500;28;20247;-69
2022/09/18 00:33:09;;;;;;;1.98;1.50;;;;;;;16.32;68.59;93771.63;5027677;28;20317;-70
2022/09/18 00:35:41;;;;;;;1.88;1.13;;;;;;;16.25;67.90;93789.47;5011615;28;20231;-67
2022/09/18 00:38:06;;;;;;;1.08;0.90;;;;;;;16.16;66.17;93808.50;5010922;28;20222;-69
2022/09/18 00:40:31;;;;;;;1.27;0.90;;;;;;;16.18;65.40;93814.41;5009447;28;20211;-69
2022/09/18 00:42:57;;;;;;;3.38;0.77;;;;;;;16.10;64.13;93815.47;5004459;28;20230;-70
2022/09/18 00:45:24;;;;;;;0.98;0.80;;;;;;;15.93;64.01;93827.63;5010787;28;20233;-69
2022/09/18 00:47:50;;;;;;;1.58;0.90;;;;;;;15.72;64.20;93839.38;5012230;28;20749;-69
2022/09/18 00:50:20;;;;;;;0.88;0.75;;;;;;;15.62;63.80;93845.91;5010784;28;20285;-69
2022/09/18 00:52:52;;;;;;;4.50;0.77;;;;;;;15.74;62.81;93861.16;5008833;28;20214;-69
2022/09/18 00:55:25;;;;;;;2.28;0.80;;;;;;;15.53;61.85;93857.78;5009885;28;20707;-69
2022/09/18 00:57:53;;;;;;;3.97;0.70;;;;;;;15.37;61.75;93869.66;5001966;28;20230;-69
2022/09/18 01:00:19;;;;;;;0.85;0.50;;;;;;;15.26;61.62;93885.34;5006255;28;20219;-69
2022/09/18 01:02:47;;;;;;;1.13;0.70;;;;;;;15.28;62.02;93899.22;5009590;28;20738;-69
2022/09/18 01:05:16;;;;;;;1.23;0.43;;;;;;;15.16;61.17;93899.84;5007331;28;20219;-69
2022/09/18 01:07:44;;;;;;;1.20;0.50;;;;;;;15.12;61.71;93917.16;5010573;28;20261;-70
2022/09/18 01:10:42;;;;;;;0.73;0.40;;;;;;;15.06;60.92;93922.47;5011335;28;20303;-70
2022/09/18 01:13:19;;;;;;;0.38;0.38;;;;;;;14.78;61.06;93957.91;5007928;28;20235;-69
2022/09/18 01:16:14;;;;;;;1.10;0.40;;;;;;;14.70;61.98;93964.25;5002530;28;20218;-70
2022/09/18 01:18:55;;;;;;;0.80;0.60;;;;;;;14.57;61.94;93964.22;5004546;28;20223;-69
2022/09/18 01:21:34;;;;;;;1.85;0.65;;;;;;;14.26;65.43;93967.38;4993959;28;20651;-70
2022/09/18 01:24:02;;;;;;;2.13;0.50;;;;;;;14.15;64.97;93981.19;5011721;28;20234;-70
2022/09/18 01:26:55;;;;;;;1.75;0.40;;;;;;;13.91;63.93;93996.56;5005872;28;20237;-69
2022/09/18 01:29:45;;;;;;;0.40;0.20;;;;;;;13.46;66.01;93998.75;5005502;28;20241;-69
2022/09/18 01:32:20;;;;;;;1.90;0.20;;;;;;;13.43;64.78;94001.78;5011437;28;20234;-68
2022/09/18 01:34:55;;;;;;;1.38;0.38;;;;;;;13.34;65.40;94001.13;5008274;28;20341;-67
2022/09/18 01:37:29;;;;;;;1.10;0.30;;;;;;;13.29;65.62;94015.94;5009965;28;20195;-68
2022/09/18 01:40:20;;;;;;;1.08;0.17;;;;;;;13.32;65.52;94024.28;5009230;28;20233;-69
2022/09/18 01:42:48;;;;;;;1.08;0.20;;;;;;;13.34;65.96;94024.06;5008273;28;20755;-68
2022/09/18 01:45:20;;;;;;;0.35;0.20;;;;;;;13.18;65.79;94039.16;5007281;28;20242;-68
2022/09/18 01:47:54;;;;;;;1.15;0.10;;;;;;;13.13;65.38;94036.28;5006877;28;20631;-68
2022/09/18 01:50:21;;;;;;;0.25;0.20;;;;;;;13.12;65.75;94066.31;5006752;28;20310;-69
2022/09/18 01:53:31;;;;;;;1.55;0.50;;;;;;;13.03;65.76;94067.47;5008379;28;20206;-68
2022/09/18 01:56:10;;;;;;;1.45;0.30;;;;;;;13.06;66.96;94066.28;4930059;28;20331;-68
2022/09/18 01:58:36;;;;;;;1.45;0.40;;;;;;;12.92;66.50;94081.16;4944458;28;20224;-68
2022/09/18 02:01:08;;;;;;;0.38;0.10;;;;;;;12.83;67.78;94084.91;4935719;28;20287;-68
2022/09/18 02:03:44;;;;;;;0.17;0.17;;;;;;;12.70;67.97;94090.91;4936080;29;20224;-69
2022/09/18 02:06:25;;;;;;;1.17;0.45;;;;;;;12.73;68.93;94082.63;4932596;29;20235;-68
2022/09/18 02:08:54;;;;;;;0.30;0.30;;;;;;;12.87;68.65;94076.44;4949021;28;20239;-68
2022/09/18 02:11:20;;;;;;;0.20;0.20;;;;;;;12.70;67.45;94094.34;4948503;28;20323;-69
2022/09/18 02:14:09;;;;;;;0.20;0.20;;;;;;;12.64;67.76;94097.72;4932653;28;20291;-69
2022/09/18 02:16:41;;;;;;;0.30;0.30;;;;;;;12.63;67.35;94119.84;4927205;29;20216;-68
2022/09/18 02:19:14;;;;;;;0.20;0.20;;;;;;;12.55;67.81;94122.59;4931237;29;20256;-69
2022/09/18 02:21:41;;;;;;;0.40;0.30;;;;;;;12.54;66.84;94120.97;4933752;29;20240;-68
2022/09/18 02:24:10;;;;;;;2.28;0.50;;;;;;;12.51;66.87;94134.50;4953100;28;20229;-68
2022/09/18 02:26:41;;;;;;;1.38;0.30;;;;;;;12.36;66.12;94150.34;4950468;28;20315;-68
2022/09/18 02:29:09;;;;;;;0.77;0.30;;;;;;;12.38;66.70;94161.53;4927497;29;20675;-68
2022/09/18 02:31:37;;;;;;;0.30;0.30;;;;;;;12.39;67.99;94172.88;4991512;28;20266;-69
2022/09/18 02:34:03;;;;;;;0.57;0.57;;;;;;;12.43;68.15;94175.00;5007702;28;20317;-68
2022/09/18 02:36:50;;;;;;;0.40;0.40;;;;;;;12.47;67.34;94191.25;5026979;28;20305;-68
2022/09/18 02:39:30;;;;;;;0.50;0.50;;;;;;;12.38;66.07;94200.28;5005991;28;20278;-68
2022/09/18 02:41:59;;;;;;;1.60;0.55;;;;;;;12.34;66.86;94200.59;5001653;28;20250;-68
2022/09/18 02:44:40;;;;;;;0.50;0.50;;;;;;;12.33;67.39;94204.25;5003688;28;20231;-68
2022/09/18 02:47:46;;;;;;;1.23;0.50;;;;;;;12.32;66.30;94201.78;5004561;28;20529;-68
2022/09/18 02:50:25;;;;;;;0.85;0.52;;;;;;;12.14;65.73;94210.88;5006573;28;20357;-68
2022/09/18 02:53:16;;;;;;;1.58;0.50;;;;;;;12.15;65.68;94224.88;5006131;28;20203;-68
2022/09/18 02:55:48;;;;;;;0.93;0.60;;;;;;;12.06;66.55;94225.97;4999875;28;20207;-68
2022/09/18 02:58:25;;;;;;;0.50;0.50;;;;;;;12.01;66.42;94220.41;5010695;28;20206;-69
2022/09/18 03:00:55;;;;;;;0.68;0.68;;;;;;;12.08;66.48;94226.59;5005366;28;20250;-68
2022/09/18 03:03:26;;;;;;;0.70;0.70;;;;;;;12.13;65.48;94234.78;5015984;28;20226;-68
2022/09/18 03:05:52;;;;;;;0.70;0.70;;;;;;;11.97;66.17;94251.56;5006099;28;20226;-68
2022/09/18 03:08:18;;;;;;;0.77;0.77;;;;;;;11.86;64.44;94244.09;5009478;28;20225;-68
2022/09/18 03:10:43;;;;;;;1.75;0.80;;;;;;;11.89;65.96;94239.31;5006880;28;20680;-68
2022/09/18 03:13:09;;;;;;;1.05;0.98;;;;;;;11.93;64.69;94252.13;5008568;28;20206;-68
2022/09/18 03:15:34;;;;;;;1.10;1.00;;;;;;;11.78;64.56;94242.31;5001296;28;20819;-68
2022/09/18 03:18:00;;;;;;;1.23;0.70;;;;;;;11.84;64.33;94241.63;5006252;28;20249;-68
2022/09/18 03:20:25;;;;;;;1.38;0.90;;;;;;;11.77;64.36;94251.22;5007670;28;20253;-68
2022/09/18 03:22:50;;;;;;;0.90;0.90;;;;;;;11.91;64.49;94263.63;5002589;28;20203;-69
2022/09/18 03:25:16;;;;;;;2.42;0.90;;;;;;;11.95;64.46;94263.28;5013670;28;20210;-69
2022/09/18 03:27:41;;;;;;;2.00;1.00;;;;;;;12.00;64.38;94276.72;5004687;28;20231;-68
2022/09/18 03:30:08;;;;;;;1.85;0.82;;;;;;;11.79;63.79;94274.75;5008662;28;20234;-69
2022/09/18 03:32:33;;;;;;;0.90;0.90;;;;;;;11.71;63.61;94278.28;5006866;28;20238;-68
2022/09/18 03:34:59;;;;;;;0.80;0.80;;;;;;;11.72;64.26;94268.56;5007510;28;20447;-68
2022/09/18 03:37:25;;;;;;;0.95;0.90;;;;;;;11.78;63.56;94289.72;5010764;28;20203;-68
2022/09/18 03:39:50;;;;;;;2.60;0.90;;;;;;;11.83;63.22;94287.38;5009236;28;20222;-68
2022/09/18 03:42:15;;;;;;;0.77;0.77;;;;;;;11.68;62.96;94282.09;5006454;28;20235;-68
2022/09/18 03:44:41;;;;;;;0.65;0.65;;;;;;;11.66;63.18;94281.44;5008348;28;20965;-68
2022/09/18 03:47:08;;;;;;;0.95;0.82;;;;;;;11.61;63.21;94286.41;5007055;28;20962;-68
2022/09/18 03:49:34;;;;;;;0.88;0.85;;;;;;;11.35;62.54;94270.13;5000968;28;20207;-68
2022/09/18 03:52:00;;;;;;;1.75;1.00;;;;;;;11.34;62.66;94271.13;5005420;28;20215;-68
2022/09/18 03:54:25;;;;;;;0.85;0.85;;;;;;;11.47;63.26;94292.44;5007111;28;20306;-68
2022/09/18 03:56:51;;;;;;;0.90;0.90;;;;;;;11.39;63.05;94289.88;5005854;28;20708;-68
2022/09/18 03:59:16;;;;;;;1.17;1.08;;;;;;;11.18;62.91;94293.09;5007358;28;20876;-69
2022/09/18 04:01:42;;;;;;;1.15;1.15;;;;;;;11.24;63.33;94300.31;5005371;28;20235;-67
2022/09/18 04:04:07;;;;;;;0.90;0.90;;;;;;;11.24;63.80;94316.09;5007684;28;20273;-67
2022/09/18 04:06:33;;;;;;;1.20;1.20;;;;;;;11.29;63.98;94323.47;5006984;28;20317;-68
2022/09/18 04:08:58;;;;;;;1.20;1.20;;;;;;;11.37;63.97;94326.06;5005435;28;20231;-68
2022/09/18 04:11:24;;;;;;;1.08;1.08;;;;;;;11.44;63.14;94329.63;5006307;28;20222;-68
2022/09/18 04:13:49;;;;;;;1.10;0.93;;;;;;;11.47;62.74;94326.66;5019028;28;20226;-68
2022/09/18 04:16:14;;;;;;;1.20;1.10;;;;;;;11.47;62.87;94329.28;5027331;28;20694;-68
2022/09/18 04:18:40;;;;;;;1.47;1.30;;;;;;;11.34;62.83;94321.16;5011276;28;20707;-68
2022/09/18 04:21:05;;;;;;;1.33;1.23;;;;;;;11.45;62.00;94332.09;5011319;28;20230;-68
2022/09/18 04:23:31;;;;;;;1.50;1.40;;;;;;;11.40;62.39;94347.59;5015268;28;20912;-68
2022/09/18 04:25:56;;;;;;;1.50;1.40;;;;;;;11.40;62.31;94350.22;5009118;28;20211;-68
2022/09/18 04:28:22;;;;;;;1.30;1.20;;;;;;;11.38;61.56;94348.75;5010534;28;20712;-68
2022/09/18 04:30:48;;;;;;;1.40;1.30;;;;;;;11.32;62.65;94352.91;5006816;28;20317;-68
2022/09/18 04:33:13;;;;;;;1.52;1.35;;;;;;;11.38;63.23;94352.19;5009650;28;20230;-68
2022/09/18 04:35:40;;;;;;;1.55;1.45;;;;;;;11.45;63.60;94368.13;5008401;28;20465;-68
2022/09/18 04:38:05;;;;;;;1.55;1.40;;;;;;;11.50;62.81;94365.81;5009568;28;20353;-69
2022/09/18 04:40:31;;;;;;;1.40;1.30;;;;;;;11.26;63.67;94380.72;5007129;28;20290;-68
2022/09/18 04:42:56;;;;;;;1.55;1.45;;;;;;;11.31;63.65;94377.59;5012842;28;20227;-69
2022/09/18 04:45:22;;;;;;;2.05;1.85;;;;;;;11.43;64.65;94376.19;5010353;28;20222;-68
2022/09/18 04:47:48;;;;;;;1.70;1.60;;;;;;;11.40;64.87;94379.16;5009906;28;20227;-69
2022/09/18 04:50:13;;;;;;;1.48;1.40;;;;;;;11.33;64.44;94390.56;5008188;28;20228;-69
2022/09/18 04:52:39;;;;;;;1.70;1.60;;;;;;;11.32;64.56;94384.47;5006211;28;20218;-69
2022/09/18 04:55:05;;;;;;;1.40;1.30;;;;;;;11.38;64.54;94402.22;5006744;28;20309;-69
2022/09/18 04:57:30;;;;;;;1.33;1.23;;;;;;;11.55;63.60;94405.59;5008777;28;20238;-69
2022/09/18 04:59:56;;;;;;;1.40;1.30;;;;;;;11.36;63.83;94409.47;5019192;28;20227;-69
2022/09/18 05:02:22;;;;;;;1.38;1.30;;;;;;;11.23;63.88;94407.38;5024766;28;20218;-69
2022/09/18 05:04:47;;;;;;;1.73;1.63;;;;;;;11.31;64.04;94422.31;5012784;28;20298;-69
2022/09/18 05:07:13;;;;;;;1.40;1.30;;;;;;;11.34;63.62;94429.88;5011767;28;20211;-69
2022/09/18 05:09:38;;;;;;;1.73;1.30;;;;;;;11.22;64.18;94441.75;5009197;28;20231;-69
2022/09/18 05:12:04;;;;;;;1.80;1.20;;;;;;;11.27;64.32;94439.44;5004547;28;20247;-69
2022/09/18 05:14:29;;;;;;;1.35;1.25;;;;;;;11.39;63.78;94461.78;5009724;28;20250;-69
2022/09/18 05:16:55;;;;;;;1.50;1.40;;;;;;;11.30;63.67;94451.44;5008775;28;20285;-69
2022/09/18 05:19:21;;;;;;;3.10;1.33;;;;;;;11.32;62.08;94467.88;5010033;28;20203;-69
2022/09/18 05:21:50;;;;;;;1.50;1.40;;;;;;;11.30;63.17;94454.88;4993216;28;20261;-69
2022/09/18 05:24:16;;;;;;;2.13;1.50;;;;;;;11.31;63.32;94468.88;5006992;28;20219;-69
2022/09/18 05:26:43;;;;;;;1.40;1.30;;;;;;;11.18;63.13;94466.78;5004613;28;20822;-70
2022/09/18 05:29:08;;;;;;;1.42;1.30;;;;;;;11.35;63.21;94478.88;5008855;28;20597;-69
2022/09/18 05:31:33;;;;;;;2.30;1.20;;;;;;;11.45;62.29;94489.22;5005181;28;20293;-69
2022/09/18 05:33:59;;;;;;;1.50;1.40;;;;;;;11.29;63.08;94478.75;5002062;28;20219;-69
2022/09/18 05:36:24;;;;;;;1.45;1.35;;;;;;;11.25;62.85;94468.56;5010548;28;20222;-69
2022/09/18 05:38:50;;;;;;;1.67;1.27;;;;;;;11.24;62.29;94476.63;5010255;28;20716;-69
2022/09/18 05:41:15;;;;;;;1.50;1.40;;;;;;;11.37;61.63;94495.34;5008957;28;20329;-69
2022/09/18 05:43:44;;;;;;;1.58;1.48;;;;;;;11.35;62.52;94499.13;5006138;28;20778;-69
2022/09/18 05:46:10;;;;;;;1.45;1.35;;;;;;;11.33;61.28;94487.94;5009352;28;20227;-69
2022/09/18 05:48:36;;;;;;;1.40;1.30;;;;;;;11.34;61.42;94498.31;5008555;28;20219;-69
2022/09/18 05:51:01;;;;;;;1.00;1.00;;;;;;;11.27;60.41;94490.25;4992606;28;20234;-69
2022/09/18 05:53:27;;;;;;;1.55;1.45;;;;;;;11.29;60.69;94497.19;5007010;28;20329;-69
2022/09/18 05:55:52;;;;;;;1.40;1.30;;;;;;;11.29;59.64;94495.38;5009523;28;20286;-69
2022/09/18 05:58:19;;;;;;;1.70;1.60;;;;;;;11.30;60.05;94496.19;5012617;28;20229;-69
2022/09/18 06:00:44;;;;;;;2.00;1.80;;;;;;;11.30;59.25;94504.88;5004602;28;20995;-69
2022/09/18 06:03:13;;;;;;;1.80;1.70;;;;;;;11.29;59.20;94495.38;5009698;28;20309;-69
2022/09/18 06:05:39;;;;;;;2.17;1.50;;;;;;;11.29;59.63;94498.00;5008064;28;20443;-69
2022/09/18 06:08:06;;;;;;;1.85;1.75;;;;;;;11.34;59.69;94514.09;5009980;28;20219;-69
2022/09/18 06:10:36;;;;;;;2.35;1.75;;;;;;;11.40;59.55;94508.16;5008776;28;20202;-69
2022/09/18 06:13:07;;;;;;;1.73;1.63;;;;;;;11.45;59.54;94505.03;5007232;28;20223;-69
2022/09/18 06:15:34;;;;;;;3.20;2.15;;;;;;;11.55;59.68;94503.03;5022599;28;20230;-70
2022/09/18 06:17:59;;;;;;;3.10;2.60;;;;;;;11.51;59.82;94516.69;5007107;28;20222;-69
2022/09/18 06:20:25;;;;;;;4.25;2.42;;;;;;;11.52;59.74;94524.44;5008964;28;20372;-69
2022/09/18 06:25:41;;;;;;;1.50;1.40;;;;;;;11.61;59.08;94535.75;5007089;28;20264;-69
2022/09/18 06:28:07;;;;;;;2.47;1.42;;;;;;;11.59;58.80;94538.53;5008838;28;20222;-68
2022/09/18 06:30:34;;;;;;;1.40;1.30;;;;;;;11.60;58.45;94536.72;5007308;28;20234;-69
2022/09/18 06:33:05;;;;;;;1.42;1.30;;;;;;;11.57;58.72;94545.78;5008626;28;21038;-68
2022/09/18 06:35:34;;;;;;;1.50;1.40;;;;;;;11.58;58.94;94544.81;5005236;28;20222;-69
2022/09/18 06:38:04;;;;;;;1.90;1.40;;;;;;;11.57;59.31;94558.94;5010605;28;20285;-68
2022/09/18 06:40:31;;;;;;;2.35;1.60;;;;;;;11.61;59.32;94564.72;5005569;28;20713;-70
2022/09/18 06:42:58;;;;;;;3.88;1.80;;;;;;;11.53;59.32;94565.56;5006965;28;21390;-68
2022/09/18 06:45:24;;;;;;;2.83;1.65;;;;;;;11.55;58.67;94568.03;5007821;28;20222;-68
2022/09/18 06:47:54;;;;;;;2.70;2.30;;;;;;;11.69;58.63;94569.97;5004500;28;20602;-68
2022/09/18 06:50:23;;;;;;;2.03;1.30;;;;;;;11.77;58.47;94569.13;5020153;28;20223;-68
2022/09/18 06:52:50;;;;;;;1.27;1.10;;;;;;;11.65;58.81;94574.75;5005438;28;20207;-68
2022/09/18 06:55:17;;;;;;;2.03;1.00;;;;;;;11.77;58.56;94577.84;5002959;28;20198;-68
2022/09/18 06:57:53;;;;;;;1.35;1.20;;;;;;;11.80;58.74;94579.31;5010695;28;20237;-70
2022/09/18 07:00:18;;;;;;;1.83;1.23;;;;;;;11.86;58.25;94592.63;5010647;28;20249;-69
2022/09/18 07:02:44;;;;;;;1.42;1.33;;;;;;;11.80;57.70;94580.13;5006417;28;20250;-68
2022/09/18 07:05:09;;;;;;;1.73;1.33;;;;;;;11.92;57.46;94580.59;5007501;28;20326;-69
2022/09/18 07:07:35;;;;;;;2.25;1.05;;;;;;;12.04;57.08;94587.16;5006127;28;20211;-68
2022/09/18 07:10:00;;;;;;;1.25;1.00;;;;;;;12.03;56.21;94589.94;5004862;28;20224;-68
2022/09/18 07:12:27;;;;;;;1.33;1.10;;;;;;;12.19;56.09;94583.78;5000890;28;20265;-69
2022/09/18 07:14:52;;;;;;;1.15;1.00;;;;;;;12.26;55.32;94582.91;5007990;28;20243;-69
2022/09/18 07:17:18;;;;;;;1.23;1.13;;;;;;;12.30;53.94;94592.13;5006563;28;20368;-68
2022/09/18 07:19:43;;;;;;;2.65;0.95;;;;;;;12.25;52.78;94593.66;5018049;28;20212;-69
2022/09/18 07:22:09;;;;;;;1.17;1.00;;;;;;;12.37;52.43;94594.88;5020356;28;20960;-69
2022/09/18 07:24:35;;;;;;;1.02;0.95;;;;;;;12.30;52.42;94593.97;5007342;28;20222;-69
2022/09/18 07:27:01;;;;;;;1.52;1.00;;;;;;;12.36;52.57;94588.81;5007279;28;20231;-69
2022/09/18 07:29:32;;;;;;;0.75;0.75;;;;;;;12.40;52.35;94581.34;5010214;28;20226;-69
2022/09/18 07:31:58;;;;;;;0.93;0.93;;;;;;;12.33;52.43;94590.97;4999631;28;20281;-68
2022/09/18 07:34:24;;;;;;;1.30;1.20;;;;;;;12.37;52.47;94589.63;5007281;28;20207;-68
2022/09/18 07:36:50;;;;;;;1.77;1.23;;;;;;;12.58;52.09;94594.28;5004799;28;20309;-69
2022/09/18 07:39:15;;;;;;;1.95;1.23;;;;;;;12.70;52.42;94592.91;5007363;28;20218;-68
2022/09/18 07:41:42;;;;;;;1.30;1.20;;;;;;;12.73;51.45;94602.28;5007149;28;20227;-68
2022/09/18 07:44:08;;;;;;;1.90;1.08;;;;;;;12.66;51.86;94591.59;5010605;28;20233;-69
2022/09/18 07:46:34;;;;;;;2.03;1.25;;;;;;;12.63;52.20;94599.84;5007870;28;20218;-68
2022/09/18 07:48:59;;;;;;;1.42;1.20;;;;;;;12.85;52.18;94602.69;5006587;28;20248;-69
2022/09/18 07:51:25;;;;;;;1.40;1.08;;;;;;;12.98;51.55;94601.09;5008930;28;20222;-69
2022/09/18 07:53:50;;;;;;;1.23;1.13;;;;;;;12.99;51.43;94594.00;5011084;28;20227;-69
2022/09/18 07:56:15;;;;;;;2.70;1.25;;;;;;;13.18;50.61;94596.16;5013118;28;20225;-69
2022/09/18 07:58:41;;;;;;;1.30;1.20;;;;;;;13.19;50.66;94583.78;5020580;28;20206;-70
2022/09/18 08:01:07;;;;;;;1.10;1.00;;;;;;;13.24;49.83;94592.00;5009219;28;20225;-69
2022/09/18 08:03:38;;;;;;;1.65;1.10;;;;;;;13.24;48.22;94598.09;5006874;28;20708;-69
2022/09/18 08:06:05;;;;;;;0.95;0.95;;;;;;;13.24;48.56;94592.00;5025032;28;20230;-69
2022/09/18 08:08:33;;;;;;;1.17;0.90;;;;;;;13.38;49.06;94603.63;5010365;28;20747;-70
2022/09/18 08:10:59;;;;;;;1.50;0.80;;;;;;;13.46;48.48;94591.16;5010603;28;20356;-70
2022/09/18 08:13:24;;;;;;;1.45;1.00;;;;;;;13.33;47.79;94611.25;5006967;28;20687;-69
2022/09/18 08:15:50;;;;;;;1.88;1.15;;;;;;;13.07;49.42;94601.88;5009178;28;20237;-69
2022/09/18 08:18:16;;;;;;;1.40;1.10;;;;;;;13.24;48.67;94607.84;5011206;28;20236;-69
2022/09/18 08:20:44;;;;;;;2.78;1.10;;;;;;;13.54;48.57;94603.47;5008607;28;20272;-69
2022/09/18 08:23:10;;;;;;;2.05;1.10;;;;;;;13.63;48.10;94602.41;5012154;28;20224;-69
2022/09/18 08:25:36;;;;;;;2.53;1.42;;;;;;;13.94;47.70;94603.22;5011004;28;20264;-69
2022/09/18 08:28:02;;;;;;;1.20;1.15;;;;;;;14.09;46.89;94599.56;5010298;28;20324;-68
2022/09/18 08:30:28;;;;;;;1.92;1.52;;;;;;;14.15;46.96;94602.50;5008182;28;20611;-69
2022/09/18 08:33:01;;;;;;;1.45;1.10;;;;;;;14.15;47.44;94610.41;5006130;28;20769;-69
2022/09/18 08:35:29;;;;;;;2.85;1.23;;;;;;;13.91;46.15;94599.13;5023189;28;20270;-69
2022/09/18 08:37:54;;;;;;;1.23;0.93;;;;;;;13.81;46.24;94609.13;5024375;28;20865;-69
2022/09/18 08:40:32;;;;;;;0.88;0.88;;;;;;;14.16;45.74;94606.75;5010841;28;20207;-69
2022/09/18 08:43:12;;;;;;;1.48;1.02;;;;;;;13.71;46.49;94609.38;5006941;28;20223;-69
2022/09/18 08:46:05;;;;;;;0.80;0.80;;;;;;;13.37;47.71;94607.25;5006801;28;20223;-69
2022/09/18 08:48:39;;;;;;;1.30;1.20;;;;;;;13.48;48.12;94598.91;5007354;28;20211;-68
2022/09/18 08:52:03;;;;;;;1.10;1.00;;;;;;;13.89;48.31;94596.66;5006836;28;20231;-69
2022/09/18 08:54:55;;;;;;;1.83;1.50;;;;;;;13.91;48.49;94612.34;4963995;28;20231;-69
2022/09/18 08:57:26;;;;;;;1.58;1.10;;;;;;;14.01;48.47;94620.00;4950825;28;20228;-69
2022/09/18 08:59:59;;;;;;;1.85;1.00;;;;;;;14.21;47.05;94622.91;4949303;28;20216;-69
2022/09/18 09:02:41;;;;;;;1.30;1.20;;;;;;;14.65;46.83;94622.03;4944380;28;20223;-69
2022/09/18 09:05:11;;;;;;;0.90;0.90;;;;;;;14.65;45.84;94617.56;4949787;28;20224;-69
2022/09/18 09:08:15;;;;;;;0.90;0.88;;;;;;;14.53;46.05;94642.88;4950256;28;20212;-69
2022/09/18 09:10:58;;;;;;;1.00;1.00;;;;;;;14.38;47.10;94634.94;4932960;29;20232;-69
2022/09/18 09:13:45;;;;;;;1.25;1.05;;;;;;;14.54;46.03;94642.69;4934976;29;20212;-69
2022/09/18 09:16:23;;;;;;;1.20;0.93;;;;;;;14.44;45.25;94642.13;4933759;29;20267;-68
2022/09/18 09:18:54;;;;;;;0.80;0.80;;;;;;;14.44;44.93;94636.03;4917511;29;20236;-68
2022/09/18 09:21:22;;;;;;;1.23;0.90;;;;;;;14.94;44.26;94656.38;4934867;29;20224;-68
2022/09/18 09:23:58;;;;;;;1.10;1.00;;;;;;;15.25;43.47;94634.06;4932236;28;20233;-68
2022/09/18 09:26:25;;;;;;;1.30;0.90;;;;;;;15.29;43.31;94661.81;4953321;28;20242;-69
2022/09/18 09:29:20;;;;;;;0.75;0.75;;;;;;;15.58;42.72;94673.28;4955682;28;20227;-69
2022/09/18 09:31:52;;;;;;;0.80;0.80;;;;;;;15.66;42.25;94673.97;4954459;28;20232;-69
2022/09/18 09:34:45;;;;;;;1.05;0.98;;;;;;;15.66;42.33;94686.38;4953360;28;20227;-68
2022/09/18 09:37:18;;;;;;;1.15;1.05;;;;;;;15.61;42.90;94680.84;4954463;28;20239;-68
2022/09/18 09:39:52;;;;;;;1.02;0.90;;;;;;;15.38;43.32;94703.06;4952618;28;20618;-70
2022/09/18 09:42:37;;;;;;;0.98;0.95;;;;;;;15.05;43.39;94701.88;4950634;28;20228;-69
2022/09/18 09:45:14;;;;;;;1.15;1.10;;;;;;;14.80;42.69;94710.16;4969663;28;21034;-69
2022/09/18 09:48:03;;;;;;;1.20;1.10;;;;;;;14.77;43.49;94715.81;4982949;28;20317;-69
2022/09/18 09:50:51;;;;;;;2.92;1.50;;;;;;;14.63;43.34;94724.63;4952799;28;20227;-68
2022/09/18 09:53:17;;;;;;;2.75;1.30;;;;;;;14.51;43.43;94705.69;4945980;28;20224;-69
2022/09/18 09:56:07;;;;;;;1.45;1.35;;;;;;;14.66;43.39;94708.38;4952333;28;20212;-69
2022/09/18 09:58:51;;;;;;;1.45;1.25;;;;;;;15.07;42.70;94719.22;4962882;28;20239;-69
2022/09/18 10:01:29;;;;;;;1.90;1.80;;;;;;;14.59;43.12;94718.03;4961984;28;20268;-70
2022/09/18 10:04:24;;;;;;;1.90;1.70;;;;;;;14.43;43.70;94713.72;4950528;28;20230;-69
2022/09/18 10:07:09;;;;;;;1.83;1.73;;;;;;;14.59;43.84;94712.75;4951044;28;20255;-70
2022/09/18 10:09:51;;;;;;;1.80;1.67;;;;;;;14.62;43.90;94701.78;4961802;28;20301;-70
2022/09/18 10:12:28;;;;;;;2.25;2.15;;;;;;;14.72;44.28;94715.56;4958612;28;20232;-69
2022/09/18 10:14:58;;;;;;;2.53;2.30;;;;;;;14.66;45.05;94718.94;4944169;28;20232;-69
2022/09/18 10:17:26;;;;;;;2.67;2.45;;;;;;;14.41;44.72;94713.91;4950359;28;20231;-69
2022/09/18 10:19:52;;;;;;;2.30;2.20;;;;;;;14.44;45.18;94712.72;4954691;28;20243;-69
2022/09/18 10:22:21;;;;;;;2.72;2.45;;;;;;;14.39;45.44;94713.28;4951724;28;20266;-69
2022/09/18 10:24:57;;;;;;;3.08;2.88;;;;;;;14.77;44.77;94727.22;4945073;28;20243;-69
2022/09/18 10:27:22;;;;;;;2.90;2.70;;;;;;;15.33;43.63;94724.00;4972130;28;20659;-69
2022/09/18 10:29:48;;;;;;;2.53;2.33;;;;;;;15.54;42.67;94717.06;5010599;28;20265;-69
2022/09/18 10:32:31;;;;;;;2.55;2.42;;;;;;;15.48;42.99;94725.78;5007337;28;20242;-69
2022/09/18 10:34:57;;;;;;;2.95;2.75;;;;;;;15.55;42.73;94724.00;5006632;28;20214;-70
2022/09/18 10:37:28;;;;;;;2.95;2.65;;;;;;;15.52;42.98;94730.50;5008931;28;20199;-70
2022/09/18 10:40:00;;;;;;;2.97;2.78;;;;;;;15.41;43.00;94739.78;5007307;28;20879;-70
2022/09/18 10:42:28;;;;;;;2.92;2.78;;;;;;;16.08;40.91;94725.31;5007226;28;20305;-70
2022/09/18 10:45:01;;;;;;;3.00;2.80;;;;;;;16.35;40.81;94729.97;5012572;28;20234;-70
2022/09/18 10:47:29;;;;;;;7.30;3.20;;;;;;;15.99;41.09;94725.66;5006448;28;20565;-70
2022/09/18 10:50:06;;;;;;;3.83;3.53;;;;;;;15.83;40.85;94748.78;5008384;28;20253;-70
2022/09/18 10:52:34;;;;;;;3.45;3.15;;;;;;;15.77;41.44;94714.25;5004045;28;20204;-70
2022/09/18 10:55:06;;;;;;;3.90;3.60;;;;;;;15.28;41.78;94746.75;5011423;28;20234;-70
2022/09/18 10:57:36;;;;;;;4.47;3.70;;;;;;;15.15;42.18;94744.78;5007610;28;20226;-70
2022/09/18 11:00:24;;;;;;;3.40;3.20;;;;;;;15.00;42.80;94736.88;5007451;28;20230;-70
2022/09/18 11:02:55;;;;;;;3.45;3.13;;;;;;;15.51;42.52;94759.84;4993270;28;20222;-70
2022/09/18 11:05:25;;;;;;;3.47;3.17;;;;;;;16.03;41.03;94746.28;5004887;28;20222;-70
2022/09/18 11:10:52;;;;;;;4.35;4.00;;;;;;;15.54;42.70;94744.38;5013676;28;20280;-69
2022/09/18 11:13:26;;;;;;;3.50;3.20;;;;;;;16.01;40.43;94745.66;5015897;28;20215;-69
2022/09/18 11:15:56;;;;;;;3.45;3.22;;;;;;;16.58;39.27;94735.03;5010029;28;20226;-69
2022/09/18 11:18:24;;;;;;;3.38;3.17;;;;;;;17.20;38.91;94734.91;5013144;28;20225;-69
2022/09/18 11:20:51;;;;;;;3.30;3.10;;;;;;;17.44;38.19;94730.09;5006373;28;20218;-70
2022/09/18 11:23:31;;;;;;;6.03;3.15;;;;;;;17.82;36.87;94732.22;5003827;28;20354;-69
2022/09/18 11:26:14;;;;;;;2.60;2.35;;;;;;;18.19;36.11;94748.59;5005295;28;20207;-69
2022/09/18 11:28:39;;;;;;;2.40;2.20;;;;;;;18.06;36.22;94741.44;5005503;28;20256;-70
2022/09/18 11:31:18;;;;;;;3.35;1.73;;;;;;;17.68;35.60;94751.81;5012763;28;20246;-70
2022/09/18 11:33:48;;;;;;;1.65;1.50;;;;;;;17.56;35.36;94748.91;5005483;28;20222;-70
2022/09/18 11:36:21;;;;;;;2.60;1.50;;;;;;;16.94;36.54;94745.44;5002715;28;20214;-69
2022/09/18 11:38:47;;;;;;;1.88;1.70;;;;;;;16.85;36.61;94736.00;5007258;28;20929;-69
2022/09/18 11:41:24;;;;;;;1.60;1.50;;;;;;;16.91;36.38;94740.53;5007829;28;20226;-69
2022/09/18 11:44:42;;;;;;;1.90;1.80;;;;;;;17.09;35.82;94740.81;5006402;28;20207;-70
2022/09/18 11:47:13;;;;;;;1.80;1.70;;;;;;;17.42;36.00;94737.44;4955510;28;20238;-70
2022/09/18 11:49:43;;;;;;;1.60;1.50;;;;;;;17.38;35.53;94737.03;4956477;28;20610;-69
2022/09/18 11:52:18;;;;;;;2.65;1.75;;;;;;;17.00;36.53;94752.66;4956091;28;20263;-69
2022/09/18 11:55:02;;;;;;;2.53;1.70;;;;;;;16.72;37.98;94747.34;4947658;28;20235;-69
2022/09/18 11:57:37;;;;;;;4.88;2.05;;;;;;;16.88;37.58;94749.72;4960856;28;20973;-69